Time;durP1;ratioP1;P1;durP2;ratioP2;P2;SDS_P1;SDS_P2;PMS_P1;PMS_P2;Temp;Humidity;BMP_temperature;BMP_pressure;BME280_temperature;BME280_humidity;BME280_pressure;Samples;Min_cycle;Max_cycle;Signal;HPM_P1;HPM_P2
2022/11/16 00:01:12;;;;;;;13.45;8.95;;;12.20;99.90;;;;;;5010683;28;20381;-72
2022/11/16 00:03:38;;;;;;;10.77;7.30;;;12.20;99.90;;;;;;5010896;28;20467;-73
2022/11/16 00:06:05;;;;;;;16.17;9.07;;;12.30;99.90;;;;;;5010876;28;20953;-74
2022/11/16 00:08:35;;;;;;;10.77;8.13;;;12.20;99.90;;;;;;5009666;28;20412;-72
2022/11/16 00:11:10;;;;;;;11.75;8.90;;;12.20;99.90;;;;;;5010516;28;20460;-74
2022/11/16 00:13:37;;;;;;;11.98;8.73;;;12.20;99.90;;;;;;5011833;28;20408;-73
2022/11/16 00:16:03;;;;;;;11.18;8.55;;;12.20;99.90;;;;;;5011564;28;20415;-72
2022/11/16 00:18:29;;;;;;;13.95;8.32;;;12.20;99.90;;;;;;5011311;28;20392;-71
2022/11/16 00:20:55;;;;;;;12.73;8.63;;;12.20;99.90;;;;;;5012013;28;20769;-71
2022/11/16 00:23:21;;;;;;;14.07;8.75;;;12.20;99.90;;;;;;5012514;28;20392;-71
2022/11/16 00:25:46;;;;;;;10.68;7.95;;;12.20;99.90;;;;;;5012279;28;20397;-73
2022/11/16 00:28:12;;;;;;;10.40;7.90;;;12.30;99.90;;;;;;5018280;28;20412;-72
2022/11/16 00:30:38;;;;;;;11.10;8.68;;;12.20;99.90;;;;;;5019733;28;20392;-72
2022/11/16 00:33:05;;;;;;;11.80;8.50;;;12.20;99.90;;;;;;5019896;28;20698;-72
2022/11/16 00:35:31;;;;;;;10.48;8.10;;;12.20;99.90;;;;;;5016481;28;20401;-74
2022/11/16 00:37:56;;;;;;;12.90;8.17;;;12.20;99.90;;;;;;5017082;28;20385;-74
2022/11/16 00:40:22;;;;;;;12.80;8.67;;;12.20;99.90;;;;;;5014193;28;20436;-72
2022/11/16 00:42:48;;;;;;;11.68;8.80;;;12.30;99.90;;;;;;5013804;28;20460;-73
2022/11/16 00:45:13;;;;;;;12.73;8.60;;;12.30;99.90;;;;;;5014158;28;20401;-72
2022/11/16 00:47:39;;;;;;;9.90;8.35;;;12.30;99.90;;;;;;5015280;28;20404;-73
2022/11/16 00:50:05;;;;;;;15.63;8.65;;;12.20;99.90;;;;;;5019118;28;20399;-74
2022/11/16 00:52:31;;;;;;;16.48;10.25;;;12.20;99.90;;;;;;5019503;28;20690;-73
2022/11/16 00:54:56;;;;;;;13.50;8.37;;;12.10;99.90;;;;;;5020534;28;20482;-72
2022/11/16 00:57:22;;;;;;;11.17;7.77;;;12.20;99.90;;;;;;5021389;28;20865;-72
2022/11/16 00:59:48;;;;;;;12.63;8.50;;;12.20;99.90;;;;;;5019688;28;20427;-72
2022/11/16 01:02:13;;;;;;;11.90;9.00;;;12.20;99.90;;;;;;5018655;28;20397;-73
2022/11/16 01:04:39;;;;;;;14.23;10.40;;;12.20;99.90;;;;;;5019170;28;20428;-72
2022/11/16 01:07:04;;;;;;;13.48;8.52;;;12.30;99.90;;;;;;5019367;28;20397;-73
2022/11/16 01:09:30;;;;;;;12.43;8.73;;;12.20;99.90;;;;;;5017424;28;20419;-71
2022/11/16 01:12:07;;;;;;;10.97;7.87;;;12.20;99.90;;;;;;5016348;28;20404;-74
2022/11/16 01:14:37;;;;;;;11.95;8.93;;;12.20;99.90;;;;;;5016101;28;20385;-74
2022/11/16 01:17:03;;;;;;;11.45;8.70;;;12.20;99.90;;;;;;5015593;28;20476;-73
2022/11/16 01:19:29;;;;;;;11.85;9.30;;;12.20;99.90;;;;;;5015156;28;20384;-74
2022/11/16 01:21:54;;;;;;;11.20;8.37;;;12.20;99.90;;;;;;5014804;28;20388;-73
2022/11/16 01:24:20;;;;;;;11.90;8.73;;;12.30;99.90;;;;;;5015300;28;20803;-73
2022/11/16 01:26:46;;;;;;;11.43;8.27;;;12.20;99.90;;;;;;5015135;28;20403;-72
2022/11/16 01:29:11;;;;;;;10.57;8.13;;;12.20;99.90;;;;;;5015305;28;20412;-73
2022/11/16 01:31:37;;;;;;;12.30;9.07;;;12.30;99.90;;;;;;5015314;28;20471;-74
2022/11/16 01:34:03;;;;;;;11.70;8.30;;;12.20;99.90;;;;;;5013516;28;20388;-73
2022/11/16 01:36:28;;;;;;;12.57;8.53;;;12.20;99.90;;;;;;5014914;28;20381;-74
2022/11/16 01:38:54;;;;;;;11.40;8.65;;;12.20;99.90;;;;;;5013059;28;20420;-73
2022/11/16 01:41:22;;;;;;;11.93;8.02;;;12.20;99.90;;;;;;5013600;28;20471;-73
2022/11/16 01:44:03;;;;;;;13.07;9.50;;;12.20;99.90;;;;;;5015530;28;20384;-74
2022/11/16 01:46:29;;;;;;;12.70;8.40;;;12.20;99.90;;;;;;5015362;28;20384;-73
2022/11/16 01:49:15;;;;;;;12.88;8.95;;;12.20;99.90;;;;;;5014116;28;20519;-73
2022/11/16 01:51:51;;;;;;;12.55;9.30;;;12.30;99.90;;;;;;5012461;28;20416;-73
2022/11/16 01:54:16;;;;;;;16.08;10.07;;;12.30;99.90;;;;;;5012430;28;20810;-72
2022/11/16 01:56:45;;;;;;;14.73;10.97;;;12.30;99.90;;;;;;5013623;28;20420;-72
2022/11/16 01:59:11;;;;;;;19.40;12.70;;;12.30;99.90;;;;;;5013878;28;20385;-73
2022/11/16 02:01:37;;;;;;;14.60;11.30;;;12.20;99.90;;;;;;5013246;28;20392;-72
2022/11/16 02:04:03;;;;;;;15.02;10.98;;;12.20;99.90;;;;;;5014487;28;20952;-74
2022/11/16 02:06:45;;;;;;;14.43;11.20;;;12.20;99.90;;;;;;5014473;28;20392;-73
2022/11/16 02:09:54;;;;;;;16.33;12.05;;;12.20;99.90;;;;;;5015041;28;20409;-74
2022/11/16 02:12:44;;;;;;;16.38;11.27;;;12.20;99.90;;;;;;5015499;28;20372;-71
2022/11/16 02:15:41;;;;;;;16.33;11.13;;;12.20;99.90;;;;;;5015268;28;20746;-72
2022/11/16 02:18:29;;;;;;;13.85;10.45;;;12.30;99.90;;;;;;5014705;28;20384;-73
2022/11/16 02:21:28;;;;;;;13.90;10.90;;;12.20;99.90;;;;;;5014725;28;20381;-73
2022/11/16 02:24:03;;;;;;;12.40;9.30;;;12.10;99.90;;;;;;5015361;28;20388;-71
2022/11/16 02:26:50;;;;;;;12.20;9.30;;;12.10;99.90;;;;;;5014935;28;20420;-72
2022/11/16 02:29:32;;;;;;;15.25;10.52;;;12.10;99.90;;;;;;5015040;28;20766;-71
2022/11/16 02:32:19;;;;;;;13.80;10.90;;;12.10;99.90;;;;;;5014231;28;20385;-72
2022/11/16 02:35:00;;;;;;;12.63;10.23;;;12.10;99.90;;;;;;5015035;28;20807;-72
2022/11/16 02:37:29;;;;;;;15.25;10.30;;;12.10;99.90;;;;;;5016033;28;20431;-73
2022/11/16 02:40:00;;;;;;;15.38;11.35;;;12.10;99.90;;;;;;5015643;28;20393;-72
2022/11/16 02:42:33;;;;;;;13.82;11.02;;;12.10;99.90;;;;;;5014860;28;20392;-74
2022/11/16 02:45:01;;;;;;;17.02;11.80;;;12.10;99.90;;;;;;5011464;28;20393;-73
2022/11/16 02:47:30;;;;;;;15.53;11.70;;;12.10;99.90;;;;;;5011321;28;20477;-72
2022/11/16 02:50:07;;;;;;;15.03;11.13;;;12.20;99.90;;;;;;5011051;28;20409;-72
2022/11/16 02:52:34;;;;;;;16.30;10.80;;;12.20;99.90;;;;;;5011357;28;20389;-73
2022/11/16 02:55:00;;;;;;;15.95;12.25;;;12.10;99.90;;;;;;5012438;28;20393;-74
2022/11/16 02:57:39;;;;;;;16.83;12.40;;;12.10;99.90;;;;;;5011791;28;20464;-73
2022/11/16 03:00:07;;;;;;;13.20;10.77;;;12.00;99.90;;;;;;5011593;28;20473;-72
2022/11/16 03:03:06;;;;;;;16.95;11.57;;;12.00;99.90;;;;;;5010891;28;20396;-73
2022/11/16 03:05:38;;;;;;;16.77;12.50;;;12.00;99.90;;;;;;5010986;28;20431;-72
2022/11/16 03:08:16;;;;;;;16.30;11.10;;;12.00;99.90;;;;;;5010933;28;20880;-73
2022/11/16 03:13:33;;;;;;;14.18;11.30;;;12.00;99.90;;;;;;5010967;28;20396;-73
2022/11/16 03:16:03;;;;;;;16.38;12.18;;;12.00;99.90;;;;;;5011104;28;20445;-72
2022/11/16 03:18:29;;;;;;;16.90;12.68;;;12.00;99.90;;;;;;5010936;28;20828;-73
2022/11/16 03:21:18;;;;;;;14.60;10.88;;;11.90;99.90;;;;;;5010868;28;20385;-72
2022/11/16 03:23:45;;;;;;;14.50;11.60;;;11.90;99.90;;;;;;4990047;28;20392;-74
2022/11/16 03:26:15;;;;;;;18.52;12.18;;;12.00;99.90;;;;;;5011159;28;20392;-73
2022/11/16 03:28:51;;;;;;;14.18;11.07;;;11.90;99.90;;;;;;5011294;28;21215;-73
2022/11/16 03:31:26;;;;;;;14.00;11.43;;;11.90;99.90;;;;;;5011259;28;20377;-74
2022/11/16 03:33:56;;;;;;;15.93;12.27;;;11.90;99.90;;;;;;5011284;28;20443;-72
2022/11/16 03:36:24;;;;;;;16.15;11.50;;;11.90;99.90;;;;;;5010882;28;20404;-72
2022/11/16 03:38:51;;;;;;;14.05;11.23;;;11.90;99.90;;;;;;5011359;28;20446;-73
2022/11/16 03:41:19;;;;;;;15.75;11.30;;;11.90;99.90;;;;;;5010747;28;20814;-72
2022/11/16 03:43:47;;;;;;;15.32;10.93;;;11.80;99.90;;;;;;5011316;28;20400;-74
2022/11/16 03:46:14;;;;;;;14.52;11.48;;;11.90;99.90;;;;;;5011617;28;20774;-73
2022/11/16 03:48:39;;;;;;;17.20;10.70;;;11.80;99.90;;;;;;5012799;28;20412;-72
2022/11/16 03:51:07;;;;;;;15.18;10.48;;;11.90;99.90;;;;;;5013757;28;20507;-74
2022/11/16 03:53:33;;;;;;;16.95;11.15;;;11.90;99.90;;;;;;5013306;28;20389;-74
2022/11/16 03:55:59;;;;;;;16.70;11.57;;;11.90;99.90;;;;;;5014247;28;20445;-72
2022/11/16 03:58:24;;;;;;;15.73;11.32;;;11.90;99.90;;;;;;5011941;28;20424;-72
2022/11/16 04:00:50;;;;;;;19.60;12.00;;;11.90;99.90;;;;;;5012754;28;20403;-72
2022/11/16 04:03:15;;;;;;;17.43;11.67;;;12.00;99.90;;;;;;5016334;28;20762;-72
2022/11/16 04:25:14;;;;;;;18.65;13.55;;;11.90;99.90;;;;;;5014056;28;20459;-72
2022/11/16 04:30:24;;;;;;;17.58;12.48;;;12.00;99.90;;;;;;5013753;28;20450;-73
2022/11/16 04:38:18;;;;;;;17.88;12.57;;;12.00;99.90;;;;;;5013902;28;20401;-73
2022/11/16 04:40:44;;;;;;;17.90;12.27;;;12.00;99.90;;;;;;5013628;28;20401;-75
2022/11/16 04:43:09;;;;;;;19.83;12.93;;;12.00;99.90;;;;;;5012434;28;20384;-72
2022/11/16 04:48:19;;;;;;;14.20;10.48;;;12.00;99.90;;;;;;5013818;28;20440;-72
2022/11/16 04:50:46;;;;;;;14.40;9.93;;;12.10;99.90;;;;;;5013989;28;20465;-73
2022/11/16 04:53:12;;;;;;;14.77;10.00;;;12.00;99.90;;;;;;5013642;28;20750;-72
2022/11/16 04:55:38;;;;;;;10.20;8.80;;;11.90;99.90;;;;;;5013677;28;20388;-73
2022/11/16 04:58:04;;;;;;;12.55;9.55;;;12.00;99.90;;;;;;5013418;28;20389;-71
2022/11/16 05:00:30;;;;;;;12.70;9.05;;;12.00;99.90;;;;;;5013240;28;20384;-73
2022/11/16 05:02:55;;;;;;;11.65;9.40;;;12.00;99.90;;;;;;5013032;28;20389;-73
2022/11/16 05:05:21;;;;;;;10.98;9.00;;;12.00;99.90;;;;;;5013018;28;20397;-72
2022/11/16 05:07:47;;;;;;;10.90;8.30;;;12.00;99.90;;;;;;5012773;28;20719;-72
2022/11/16 05:10:13;;;;;;;11.32;8.35;;;12.00;99.90;;;;;;5013122;28;20385;-73
2022/11/16 05:12:39;;;;;;;10.25;7.95;;;12.10;99.90;;;;;;5012429;28;20886;-72
2022/11/16 05:15:05;;;;;;;9.17;7.20;;;12.10;99.90;;;;;;5013006;28;20479;-72
2022/11/16 05:17:31;;;;;;;10.18;7.40;;;12.10;99.90;;;;;;5012973;28;20397;-73
2022/11/16 05:22:41;;;;;;;10.50;7.07;;;12.00;99.90;;;;;;5013015;28;20419;-72
2022/11/16 05:25:09;;;;;;;8.47;6.50;;;12.00;99.90;;;;;;5014808;28;20388;-72
2022/11/16 05:27:35;;;;;;;7.30;5.75;;;12.10;99.90;;;;;;5013551;28;20401;-71
2022/11/16 05:30:01;;;;;;;7.32;5.50;;;12.10;99.90;;;;;;5012427;28;20400;-73
2022/11/16 05:32:27;;;;;;;7.97;5.50;;;12.10;99.90;;;;;;5012404;28;20750;-75
2022/11/16 05:34:53;;;;;;;8.30;4.30;;;12.00;99.90;;;;;;5012884;28;20385;-72
2022/11/16 05:37:19;;;;;;;4.55;3.90;;;11.90;99.90;;;;;;5012704;28;20866;-72
2022/11/16 05:39:46;;;;;;;7.88;4.68;;;12.00;99.90;;;;;;5011272;28;20389;-73
2022/11/16 05:42:12;;;;;;;6.60;4.60;;;12.00;99.90;;;;;;5012502;28;20803;-72
2022/11/16 05:44:38;;;;;;;5.75;4.18;;;12.00;99.90;;;;;;5012351;28;20476;-73
2022/11/16 05:47:04;;;;;;;7.63;4.77;;;12.00;99.90;;;;;;5012406;28;20423;-72
2022/11/16 05:49:29;;;;;;;7.77;4.70;;;12.00;99.90;;;;;;5011938;28;20408;-73
2022/11/16 05:51:55;;;;;;;8.57;4.53;;;11.90;99.90;;;;;;5012170;28;20754;-73
2022/11/16 05:54:24;;;;;;;7.13;4.90;;;11.80;99.90;;;;;;5012292;28;20753;-72
2022/11/16 05:56:51;;;;;;;6.22;5.00;;;11.70;99.90;;;;;;5012818;28;20395;-73
2022/11/16 05:59:18;;;;;;;5.75;4.40;;;11.60;99.90;;;;;;5012135;28;20443;-73
2022/11/16 06:01:44;;;;;;;9.50;4.95;;;11.50;99.90;;;;;;5012713;28;20424;-73
2022/11/16 06:04:10;;;;;;;9.82;6.22;;;11.40;99.90;;;;;;5013168;28;20916;-73
2022/11/16 06:06:36;;;;;;;8.75;5.43;;;11.40;99.90;;;;;;5013438;28;20397;-74
2022/11/16 06:09:02;;;;;;;7.18;5.30;;;11.40;99.90;;;;;;5012766;28;20467;-73
2022/11/16 06:11:28;;;;;;;6.97;5.00;;;11.40;99.90;;;;;;5011599;28;20391;-73
2022/11/16 06:13:54;;;;;;;11.67;5.50;;;11.50;99.90;;;;;;5012717;28;20381;-74
2022/11/16 06:16:19;;;;;;;7.60;5.60;;;11.50;99.90;;;;;;5012201;28;20420;-72
2022/11/16 06:18:46;;;;;;;12.50;5.67;;;11.60;99.90;;;;;;5012522;28;20384;-73
2022/11/16 06:21:14;;;;;;;7.25;5.40;;;11.60;99.90;;;;;;5011998;28;20458;-73
2022/11/16 06:23:40;;;;;;;6.50;5.30;;;11.50;99.90;;;;;;5009991;28;20389;-74
2022/11/16 06:26:06;;;;;;;7.50;5.30;;;11.50;99.90;;;;;;5011634;28;20390;-72
2022/11/16 06:28:33;;;;;;;7.70;4.90;;;11.30;99.90;;;;;;5011558;28;20405;-73
2022/11/16 06:30:59;;;;;;;8.85;5.10;;;11.10;99.90;;;;;;5012125;28;20380;-72
2022/11/16 06:33:24;;;;;;;13.10;5.80;;;11.00;99.90;;;;;;5012103;28;20810;-73
2022/11/16 06:35:50;;;;;;;8.83;5.07;;;10.90;99.90;;;;;;5012648;28;20385;-72
2022/11/16 06:38:19;;;;;;;8.23;5.20;;;10.70;99.90;;;;;;5012359;28;20393;-72
2022/11/16 06:40:49;;;;;;;9.35;5.50;;;10.60;99.90;;;;;;5010593;28;20401;-72
2022/11/16 06:43:14;;;;;;;10.65;5.80;;;10.60;99.90;;;;;;5014295;28;20472;-73
2022/11/16 06:45:40;;;;;;;11.68;5.80;;;10.60;99.90;;;;;;5014402;28;20400;-73
2022/11/16 06:48:06;;;;;;;11.85;5.35;;;10.60;99.90;;;;;;5015028;28;20447;-74
2022/11/16 06:50:32;;;;;;;9.60;5.70;;;10.60;99.90;;;;;;5013651;28;20480;-73
2022/11/16 06:52:59;;;;;;;13.10;6.55;;;10.60;99.90;;;;;;5014575;28;20393;-73
2022/11/16 06:55:25;;;;;;;10.85;5.60;;;10.80;99.90;;;;;;5021274;28;20384;-72
2022/11/16 06:57:51;;;;;;;8.63;6.03;;;10.70;99.90;;;;;;5017917;28;20428;-73
2022/11/16 07:00:17;;;;;;;12.97;6.43;;;10.60;99.90;;;;;;5011678;28;20420;-73
2022/11/16 07:02:42;;;;;;;14.23;6.20;;;10.60;99.90;;;;;;5011528;28;20478;-74
2022/11/16 07:05:08;;;;;;;11.07;6.50;;;10.50;99.90;;;;;;5011988;28;20522;-73
2022/11/16 07:07:33;;;;;;;14.83;6.10;;;10.50;99.90;;;;;;5012444;28;20424;-73
2022/11/16 07:09:59;;;;;;;11.30;5.10;;;10.50;99.90;;;;;;5013361;28;20459;-73
2022/11/16 07:12:25;;;;;;;12.27;6.40;;;10.40;99.90;;;;;;5013125;28;20468;-73
2022/11/16 07:14:51;;;;;;;12.73;6.05;;;10.50;99.90;;;;;;5013954;28;20385;-74
2022/11/16 07:17:16;;;;;;;13.83;6.50;;;10.30;99.90;;;;;;5013523;28;20392;-74
2022/11/16 07:19:42;;;;;;;13.73;6.30;;;10.10;99.90;;;;;;5012975;28;20820;-74
2022/11/16 07:22:07;;;;;;;10.27;6.18;;;10.00;99.90;;;;;;5012361;28;20396;-75
2022/11/16 07:24:33;;;;;;;13.30;7.00;;;9.90;99.90;;;;;;5011858;28;20389;-73
2022/11/16 07:26:58;;;;;;;12.20;6.35;;;9.90;99.90;;;;;;5011072;28;20395;-74
2022/11/16 07:29:24;;;;;;;14.43;5.73;;;9.90;99.90;;;;;;5009329;28;20524;-74
2022/11/16 07:31:50;;;;;;;13.83;5.80;;;10.00;99.90;;;;;;5010840;28;20377;-73
2022/11/16 07:34:16;;;;;;;11.95;5.30;;;10.00;99.90;;;;;;5011043;28;20460;-73
2022/11/16 07:36:41;;;;;;;10.65;5.20;;;10.10;99.90;;;;;;5011319;28;20401;-73
2022/11/16 07:39:09;;;;;;;10.90;5.10;;;10.10;99.90;;;;;;5014850;28;20785;-74
2022/11/16 07:41:35;;;;;;;10.95;4.43;;;10.20;99.90;;;;;;5014183;28;20408;-74
2022/11/16 07:44:00;;;;;;;11.98;6.00;;;10.10;99.90;;;;;;5015270;28;20431;-74
2022/11/16 07:46:26;;;;;;;10.77;5.45;;;10.20;99.90;;;;;;5014482;28;20388;-72
2022/11/16 07:48:52;;;;;;;11.63;4.40;;;10.30;99.90;;;;;;5014721;28;20418;-73
2022/11/16 07:51:18;;;;;;;14.37;5.60;;;10.30;99.90;;;;;;5012482;28;20884;-73
2022/11/16 07:53:45;;;;;;;10.00;5.82;;;10.20;99.90;;;;;;5015362;28;20443;-75
2022/11/16 07:56:11;;;;;;;18.92;6.55;;;10.20;99.90;;;;;;5015545;28;20393;-75
2022/11/16 07:58:38;;;;;;;13.45;5.70;;;10.00;99.90;;;;;;5014711;28;20400;-74
2022/11/16 08:01:15;;;;;;;14.63;5.55;;;10.10;99.90;;;;;;5013154;28;20388;-75
2022/11/16 08:03:43;;;;;;;11.57;5.87;;;10.10;99.90;;;;;;5014987;28;20539;-76
2022/11/16 08:06:11;;;;;;;11.57;5.53;;;10.10;99.90;;;;;;5014684;28;20396;-73
2022/11/16 08:08:37;;;;;;;13.90;6.25;;;10.10;99.90;;;;;;5014445;28;20542;-74
2022/11/16 08:11:05;;;;;;;13.98;6.15;;;10.00;99.90;;;;;;5015252;28;20425;-74
2022/11/16 08:13:33;;;;;;;19.13;6.40;;;10.00;99.90;;;;;;5014894;28;20858;-75
2022/11/16 08:16:11;;;;;;;16.20;7.28;;;10.10;99.90;;;;;;5014846;28;20400;-74
2022/11/16 08:18:37;;;;;;;11.48;6.32;;;10.20;99.90;;;;;;5014957;28;20404;-72
2022/11/16 08:21:04;;;;;;;17.23;7.77;;;10.20;99.90;;;;;;5013344;28;20408;-75
2022/11/16 08:23:31;;;;;;;19.20;6.95;;;10.30;99.90;;;;;;5014195;28;20423;-75
2022/11/16 08:26:00;;;;;;;10.85;6.07;;;10.30;99.90;;;;;;5014420;28;20894;-75
2022/11/16 08:28:27;;;;;;;19.58;6.13;;;10.40;99.90;;;;;;5013918;28;20416;-75
2022/11/16 08:30:53;;;;;;;12.10;5.43;;;10.50;99.90;;;;;;5014177;28;20392;-74
2022/11/16 08:33:20;;;;;;;10.00;4.95;;;10.70;99.90;;;;;;5014671;28;20443;-76
2022/11/16 08:35:53;;;;;;;11.67;5.00;;;10.70;99.90;;;;;;5015644;28;20405;-74
2022/11/16 08:38:18;;;;;;;10.70;4.78;;;10.70;99.90;;;;;;5015174;28;20450;-75
2022/11/16 08:40:44;;;;;;;13.50;4.13;;;10.70;99.90;;;;;;5015079;28;20873;-73
2022/11/16 08:43:10;;;;;;;14.50;3.60;;;10.80;99.90;;;;;;5014542;28;20492;-75
2022/11/16 08:45:36;;;;;;;9.25;3.70;;;11.10;99.90;;;;;;5014884;28;20459;-74
2022/11/16 08:48:03;;;;;;;11.63;3.50;;;11.20;95.50;;;;;;5013915;28;20389;-74
2022/11/16 08:50:29;;;;;;;13.13;4.00;;;11.30;92.30;;;;;;5014561;28;20797;-74
2022/11/16 08:52:59;;;;;;;11.85;3.47;;;11.20;87.70;;;;;;5013999;28;20460;-73
2022/11/16 08:55:25;;;;;;;9.82;3.33;;;11.20;87.10;;;;;;5014109;28;20385;-74
2022/11/16 08:57:50;;;;;;;14.33;4.30;;;11.10;85.60;;;;;;5013797;28;20385;-73
2022/11/16 09:00:16;;;;;;;13.93;3.90;;;11.20;83.40;;;;;;5013782;28;20396;-74
2022/11/16 09:02:42;;;;;;;11.30;3.50;;;11.20;83.20;;;;;;5012438;28;20454;-73
2022/11/16 09:05:10;;;;;;;9.50;3.50;;;11.10;84.90;;;;;;5013850;28;20380;-74
2022/11/16 09:07:37;;;;;;;12.07;5.45;;;11.00;89.30;;;;;;5013964;28;20385;-73
2022/11/16 09:10:03;;;;;;;13.07;4.60;;;11.00;90.60;;;;;;5012844;28;20401;-72
2022/11/16 09:12:28;;;;;;;17.50;4.22;;;11.00;89.70;;;;;;5013416;28;20484;-74
2022/11/16 09:14:54;;;;;;;7.73;3.90;;;11.10;89.10;;;;;;5013307;28;20420;-74
2022/11/16 09:17:19;;;;;;;11.60;3.92;;;11.10;87.50;;;;;;5013686;28;20396;-74
2022/11/16 09:19:45;;;;;;;14.48;3.10;;;11.20;85.10;;;;;;5014311;28;20400;-74
2022/11/16 09:22:10;;;;;;;13.38;3.38;;;11.50;79.10;;;;;;5011839;28;20421;-74
2022/11/16 09:24:36;;;;;;;12.10;3.53;;;11.60;78.20;;;;;;5014015;28;20399;-73
2022/11/16 09:27:01;;;;;;;10.10;3.20;;;11.80;73.00;;;;;;5014355;28;20427;-73
2022/11/16 09:29:27;;;;;;;11.37;3.30;;;12.10;71.50;;;;;;5011986;28;20936;-73
2022/11/16 09:31:53;;;;;;;14.57;2.90;;;12.20;67.00;;;;;;5013455;28;20462;-74
2022/11/16 09:34:19;;;;;;;11.52;3.25;;;12.30;64.80;;;;;;5014410;28;20404;-75
2022/11/16 09:36:45;;;;;;;11.57;2.83;;;12.40;62.50;;;;;;5015057;28;20385;-76
2022/11/16 09:39:11;;;;;;;9.50;2.53;;;12.50;60.50;;;;;;5023386;28;20734;-76
2022/11/16 09:42:01;;;;;;;11.18;3.20;;;12.70;56.90;;;;;;5017185;28;20412;-74
2022/11/16 09:44:42;;;;;;;9.77;3.25;;;12.80;55.10;;;;;;5021099;28;20395;-76
2022/11/16 09:47:52;;;;;;;10.97;3.40;;;13.00;54.50;;;;;;5011215;28;20494;-74
2022/11/16 09:50:38;;;;;;;12.80;3.80;;;13.00;53.60;;;;;;4995315;28;20496;-73
2022/11/16 09:53:29;;;;;;;10.57;3.42;;;13.00;54.10;;;;;;5014057;28;20404;-73
2022/11/16 09:56:22;;;;;;;11.98;3.10;;;13.00;51.00;;;;;;5012125;28;21023;-73
2022/11/16 09:59:04;;;;;;;12.90;3.40;;;13.00;52.70;;;;;;5011352;28;20401;-72
2022/11/16 10:01:53;;;;;;;10.27;2.90;;;13.00;49.30;;;;;;5011857;28;20408;-74
2022/11/16 10:04:35;;;;;;;10.75;3.10;;;13.10;48.10;;;;;;5006901;28;20405;-73
2022/11/16 10:07:25;;;;;;;12.25;2.80;;;13.30;47.20;;;;;;5011982;28;20435;-73
2022/11/16 10:09:51;;;;;;;12.43;3.47;;;13.40;44.40;;;;;;5012521;28;20467;-72
2022/11/16 10:12:50;;;;;;;7.13;2.80;;;13.70;44.80;;;;;;5011341;28;20393;-72
2022/11/16 10:15:37;;;;;;;10.02;3.30;;;13.90;42.70;;;;;;5012881;28;20719;-72
2022/11/16 10:18:12;;;;;;;11.70;3.40;;;13.90;41.40;;;;;;5011009;28;20420;-73
2022/11/16 10:20:50;;;;;;;9.73;3.00;;;13.80;39.00;;;;;;5012486;28;20405;-73
2022/11/16 10:23:49;;;;;;;9.13;3.22;;;13.60;42.00;;;;;;5011837;28;20431;-74
2022/11/16 10:26:28;;;;;;;12.65;3.05;;;13.70;41.90;;;;;;5010885;28;20401;-72
2022/11/16 10:29:32;;;;;;;9.88;2.63;;;13.60;43.20;;;;;;5011103;28;20417;-72
2022/11/16 10:32:00;;;;;;;10.23;2.80;;;13.50;40.60;;;;;;5011387;28;20446;-73
2022/11/16 10:34:37;;;;;;;7.57;2.58;;;13.40;40.60;;;;;;5011922;28;20400;-74
2022/11/16 10:37:07;;;;;;;10.98;3.35;;;13.40;42.30;;;;;;5011921;28;20412;-73
2022/11/16 10:39:35;;;;;;;10.38;2.90;;;13.30;42.80;;;;;;5023280;28;20996;-71
2022/11/16 10:42:08;;;;;;;13.20;2.78;;;13.30;42.30;;;;;;5015157;28;20898;-72
2022/11/16 10:44:38;;;;;;;9.15;2.50;;;13.20;41.80;;;;;;5014888;28;20385;-73
2022/11/16 10:47:35;;;;;;;9.57;2.65;;;13.10;42.60;;;;;;5014195;28;20826;-73
2022/11/16 10:50:19;;;;;;;7.40;2.33;;;13.10;42.50;;;;;;5011459;28;20416;-73
2022/11/16 10:52:44;;;;;;;8.20;2.60;;;13.00;43.40;;;;;;5011275;28;20956;-74
2022/11/16 10:55:14;;;;;;;10.67;2.33;;;13.00;43.20;;;;;;5011497;28;20496;-72
2022/11/16 10:57:54;;;;;;;14.30;2.60;;;12.90;43.40;;;;;;5011177;28;20490;-72
2022/11/16 11:00:42;;;;;;;5.88;2.40;;;13.00;42.90;;;;;;5010860;28;20424;-72
2022/11/16 11:03:09;;;;;;;8.68;2.58;;;13.00;41.40;;;;;;5010820;28;20449;-72
2022/11/16 11:05:36;;;;;;;12.47;2.80;;;13.00;41.70;;;;;;5015322;28;20497;-72
2022/11/16 11:08:06;;;;;;;10.65;2.58;;;13.00;41.60;;;;;;5010900;28;20388;-73
2022/11/16 11:10:37;;;;;;;13.15;2.70;;;13.00;41.20;;;;;;5011142;28;20381;-72
2022/11/16 11:13:10;;;;;;;12.40;3.60;;;13.00;42.40;;;;;;5017635;28;20446;-73
2022/11/16 11:15:38;;;;;;;15.55;3.40;;;13.10;42.70;;;;;;5010556;28;20404;-72
2022/11/16 11:18:18;;;;;;;10.95;3.90;;;13.10;43.70;;;;;;5010593;28;20392;-74
2022/11/16 11:20:50;;;;;;;13.93;3.20;;;13.20;43.60;;;;;;5012125;28;20626;-73
2022/11/16 11:23:19;;;;;;;12.52;2.60;;;13.30;43.10;;;;;;5011105;28;20385;-74
2022/11/16 11:25:54;;;;;;;11.32;2.83;;;13.30;41.90;;;;;;5011049;28;20381;-73
2022/11/16 11:28:30;;;;;;;13.85;3.00;;;13.20;40.70;;;;;;5010938;28;20404;-74
2022/11/16 11:30:56;;;;;;;9.32;2.67;;;13.30;41.00;;;;;;5010981;28;20377;-74
2022/11/16 11:33:23;;;;;;;11.00;2.63;;;13.30;40.50;;;;;;5011323;28;20393;-73
2022/11/16 11:36:04;;;;;;;11.67;2.60;;;13.40;41.10;;;;;;5011286;28;20429;-73
2022/11/16 11:38:31;;;;;;;10.25;2.40;;;13.40;40.40;;;;;;5011542;28;20404;-73
2022/11/16 11:41:00;;;;;;;12.88;2.83;;;13.40;41.50;;;;;;5011496;28;20742;-73
2022/11/16 11:43:27;;;;;;;8.98;2.92;;;13.30;41.50;;;;;;5010318;28;20442;-74
2022/11/16 11:46:19;;;;;;;10.43;2.50;;;13.40;40.10;;;;;;5011346;28;20454;-73
2022/11/16 11:49:01;;;;;;;11.35;2.85;;;13.40;40.80;;;;;;5010966;28;20797;-73
2022/11/16 11:51:32;;;;;;;7.40;2.20;;;13.40;41.10;;;;;;5000127;28;20393;-75
2022/11/16 11:53:59;;;;;;;7.68;2.15;;;13.30;40.90;;;;;;5011223;28;20855;-74
2022/11/16 11:56:29;;;;;;;11.50;2.95;;;13.40;39.40;;;;;;5010758;28;20479;-74
2022/11/16 11:58:55;;;;;;;13.00;4.60;;;13.30;40.50;;;;;;5010876;28;20400;-74
2022/11/16 12:01:45;;;;;;;13.07;3.13;;;13.50;41.70;;;;;;5011394;28;20457;-76
2022/11/16 12:04:23;;;;;;;9.55;3.25;;;13.50;41.90;;;;;;5012186;28;20400;-73
2022/11/16 12:07:14;;;;;;;17.00;4.70;;;13.40;42.50;;;;;;5012334;28;20396;-74
2022/11/16 12:10:01;;;;;;;12.13;2.83;;;13.50;42.10;;;;;;5002294;28;20412;-73
2022/11/16 12:12:32;;;;;;;11.82;3.22;;;13.50;40.20;;;;;;5023548;28;20402;-75
2022/11/16 12:15:40;;;;;;;11.85;3.22;;;13.50;41.40;;;;;;5023889;28;20501;-76
2022/11/16 12:18:12;;;;;;;8.65;2.60;;;13.70;40.10;;;;;;5007983;28;20435;-74
2022/11/16 12:21:07;;;;;;;14.55;3.22;;;13.60;39.90;;;;;;5011092;28;20472;-74
2022/11/16 12:24:00;;;;;;;12.18;4.40;;;13.60;40.40;;;;;;5013890;28;20401;-75
2022/11/16 12:26:32;;;;;;;11.38;3.10;;;13.60;39.80;;;;;;5013393;28;20963;-74
2022/11/16 12:29:42;;;;;;;14.40;3.90;;;13.60;38.30;;;;;;5017259;28;20409;-73
2022/11/16 12:32:30;;;;;;;7.53;2.83;;;13.70;39.00;;;;;;5001064;28;20829;-75
2022/11/16 12:34:55;;;;;;;12.15;3.83;;;13.60;39.20;;;;;;5019168;28;20404;-74
2022/11/16 12:37:21;;;;;;;20.60;4.80;;;13.60;41.30;;;;;;5019206;28;20392;-73
2022/11/16 12:40:07;;;;;;;9.93;3.50;;;13.70;40.30;;;;;;5018661;28;20813;-74
2022/11/16 12:42:54;;;;;;;12.95;5.25;;;13.70;38.40;;;;;;5017617;28;20393;-74
2022/11/16 12:45:37;;;;;;;9.57;3.50;;;13.70;39.40;;;;;;5016331;28;20401;-74
2022/11/16 12:48:24;;;;;;;13.98;3.72;;;13.60;40.00;;;;;;5013292;28;20399;-76
2022/11/16 12:50:56;;;;;;;10.30;3.50;;;13.60;40.70;;;;;;5013916;28;20388;-73
2022/11/16 12:53:54;;;;;;;11.50;3.00;;;13.50;40.60;;;;;;5013888;28;20480;-74
2022/11/16 12:56:35;;;;;;;11.65;3.00;;;13.40;40.50;;;;;;5013762;28;20393;-74
2022/11/16 12:59:16;;;;;;;12.67;2.90;;;13.40;40.60;;;;;;5014050;28;20451;-74
2022/11/16 13:02:06;;;;;;;8.52;2.47;;;13.40;41.20;;;;;;5012245;28;20449;-74
2022/11/16 13:04:41;;;;;;;10.13;3.95;;;13.40;39.80;;;;;;5012480;28;20405;-72
2022/11/16 13:07:25;;;;;;;23.90;4.90;;;13.70;38.90;;;;;;5013881;28;20750;-74
2022/11/16 13:09:59;;;;;;;7.97;3.15;;;13.90;37.90;;;;;;5013409;28;20933;-73
2022/11/16 13:12:26;;;;;;;10.55;2.90;;;14.20;36.70;;;;;;5012986;28;20854;-73
2022/11/16 13:14:54;;;;;;;8.88;2.25;;;14.30;36.90;;;;;;5013285;28;20878;-73
2022/11/16 13:17:26;;;;;;;8.85;2.80;;;14.40;35.80;;;;;;5011986;28;20393;-74
2022/11/16 13:20:06;;;;;;;11.68;3.20;;;14.30;36.20;;;;;;5013633;28;20400;-73
2022/11/16 13:22:35;;;;;;;11.52;2.30;;;14.20;36.70;;;;;;5011844;28;20381;-72
2022/11/16 13:25:23;;;;;;;7.18;2.20;;;14.00;36.70;;;;;;5013660;28;20416;-71
2022/11/16 13:28:13;;;;;;;10.00;2.90;;;13.90;36.80;;;;;;5012079;28;20384;-73
2022/11/16 13:31:17;;;;;;;11.05;2.33;;;13.80;37.40;;;;;;5011649;28;20463;-74
2022/11/16 13:33:49;;;;;;;5.00;2.03;;;13.80;37.60;;;;;;5012817;28;20927;-72
2022/11/16 13:36:38;;;;;;;8.90;2.75;;;13.90;37.40;;;;;;5012742;28;20399;-73